Time;durP1;ratioP1;P1;durP2;ratioP2;P2;SDS_P1;SDS_P2;PMS_P1;PMS_P2;Temp;Humidity;BMP_temperature;BMP_pressure;BME280_temperature;BME280_humidity;BME280_pressure;Samples;Min_cycle;Max_cycle;Signal;HPM_P1;HPM_P2
2022/06/05 00:00:29;;;;;;;39.42;35.72;;;18.40;89.80;;;;;;5020675;28;20033;-78
2022/06/05 00:03:28;;;;;;;40.55;36.80;;;18.40;89.80;;;;;;5007091;28;20126;-78
2022/06/05 00:06:13;;;;;;;38.53;34.72;;;18.30;89.60;;;;;;5006089;28;20042;-78
2022/06/05 00:09:13;;;;;;;38.15;34.22;;;18.30;89.50;;;;;;5013744;28;20040;-78
2022/06/05 00:12:12;;;;;;;40.63;36.67;;;18.10;89.50;;;;;;5008005;28;20113;-78
2022/06/05 00:14:39;;;;;;;40.65;36.83;;;18.10;89.30;;;;;;5004940;28;20034;-78
2022/06/05 00:17:11;;;;;;;40.78;36.70;;;18.10;89.50;;;;;;5005913;28;20735;-78
2022/06/05 00:19:43;;;;;;;39.30;35.50;;;18.10;89.30;;;;;;5010050;28;20042;-78
2022/06/05 00:22:09;;;;;;;41.45;37.38;;;18.00;89.20;;;;;;5017155;28;20044;-78
2022/06/05 00:24:35;;;;;;;41.88;37.70;;;18.00;89.20;;;;;;5007367;28;20037;-78
2022/06/05 00:27:12;;;;;;;39.28;35.47;;;18.00;89.20;;;;;;5035186;28;20394;-78
2022/06/05 00:29:55;;;;;;;36.88;33.22;;;18.00;89.00;;;;;;4994611;28;20460;-76
2022/06/05 00:32:41;;;;;;;37.55;33.85;;;18.00;88.80;;;;;;4998254;28;20071;-76
2022/06/05 00:35:15;;;;;;;36.22;32.85;;;18.00;88.50;;;;;;5003918;28;20037;-77
2022/06/05 00:38:07;;;;;;;36.85;33.10;;;18.10;88.40;;;;;;5010132;28;20039;-77
2022/06/05 00:41:04;;;;;;;37.85;34.15;;;18.00;88.10;;;;;;5000580;28;20254;-77
2022/06/05 00:43:30;;;;;;;37.00;33.30;;;18.00;88.20;;;;;;4999412;28;20061;-78
2022/06/05 00:45:57;;;;;;;38.17;34.42;;;17.90;88.30;;;;;;5002339;28;20537;-77
2022/06/05 00:48:23;;;;;;;38.38;34.63;;;17.90;88.40;;;;;;5000551;28;20057;-77
2022/06/05 00:50:49;;;;;;;36.40;33.03;;;17.90;88.40;;;;;;4998286;28;20127;-77
2022/06/05 00:53:15;;;;;;;37.15;33.45;;;17.80;88.70;;;;;;5000041;28;20041;-77
2022/06/05 00:55:52;;;;;;;39.08;35.17;;;17.80;88.60;;;;;;5004932;28;20033;-77
2022/06/05 00:58:19;;;;;;;37.75;34.05;;;17.80;88.40;;;;;;4998972;28;20054;-77
2022/06/05 01:00:52;;;;;;;38.15;34.45;;;17.80;88.70;;;;;;5011295;28;20183;-77
2022/06/05 01:03:18;;;;;;;39.15;35.33;;;17.70;88.70;;;;;;4998823;28;20045;-77
2022/06/05 01:05:44;;;;;;;39.05;35.03;;;17.60;88.90;;;;;;5010328;28;20033;-77
2022/06/05 01:08:12;;;;;;;38.50;34.83;;;17.60;88.90;;;;;;5006641;28;20371;-78
2022/06/05 01:10:50;;;;;;;37.83;33.85;;;17.60;89.10;;;;;;5012816;28;20317;-77
2022/06/05 01:13:43;;;;;;;40.30;36.22;;;17.60;88.90;;;;;;5005202;28;20034;-78
2022/06/05 01:16:29;;;;;;;40.55;36.35;;;17.60;89.00;;;;;;5006121;28;20049;-78
2022/06/05 01:19:15;;;;;;;41.80;37.80;;;17.60;89.20;;;;;;5008138;28;20575;-77
2022/06/05 01:22:38;;;;;;;41.97;37.63;;;17.50;89.40;;;;;;5018265;28;20072;-78
2022/06/05 01:25:23;;;;;;;43.08;38.70;;;17.40;89.60;;;;;;4966756;28;20055;-78
2022/06/05 01:27:57;;;;;;;42.42;38.15;;;17.50;89.70;;;;;;4963189;28;20037;-78
2022/06/05 01:30:24;;;;;;;43.30;39.05;;;17.40;89.70;;;;;;4990559;28;20096;-78
2022/06/05 01:33:03;;;;;;;43.88;39.35;;;17.40;89.60;;;;;;5011763;28;20061;-78
2022/06/05 01:36:04;;;;;;;44.47;39.72;;;17.50;89.80;;;;;;5013983;28;20045;-78
2022/06/05 01:38:43;;;;;;;45.03;40.53;;;17.40;89.80;;;;;;4985021;28;20041;-78
2022/06/05 01:41:16;;;;;;;42.58;38.13;;;17.50;89.90;;;;;;5009837;28;20089;-79
2022/06/05 01:43:47;;;;;;;44.30;39.85;;;17.40;89.90;;;;;;5007756;28;20125;-78
2022/06/05 01:46:29;;;;;;;45.78;41.15;;;17.30;90.00;;;;;;5009676;28;20045;-78
2022/06/05 01:49:09;;;;;;;45.10;40.53;;;17.30;90.20;;;;;;5008290;28;20481;-78
2022/06/05 01:51:56;;;;;;;45.30;40.63;;;17.30;90.30;;;;;;5007104;28;20046;-78
2022/06/05 01:54:48;;;;;;;44.05;39.65;;;17.30;90.40;;;;;;5000198;28;20045;-78
2022/06/05 01:57:17;;;;;;;44.08;39.65;;;17.30;90.40;;;;;;5011286;28;20477;-78
2022/06/05 01:59:54;;;;;;;43.17;38.83;;;17.30;90.30;;;;;;5013266;28;20568;-77
2022/06/05 02:02:25;;;;;;;42.90;38.63;;;17.30;90.20;;;;;;5009646;28;20038;-78
2022/06/05 02:04:58;;;;;;;39.83;35.80;;;17.40;90.10;;;;;;5000154;28;20030;-77
2022/06/05 02:07:29;;;;;;;40.63;36.55;;;17.30;89.90;;;;;;5007971;28;20039;-78
2022/06/05 02:10:07;;;;;;;41.38;37.05;;;17.30;89.90;;;;;;5004253;28;20034;-77
2022/06/05 02:12:34;;;;;;;35.83;32.22;;;17.30;89.80;;;;;;5013860;28;20161;-77
2022/06/05 02:15:01;;;;;;;36.00;32.35;;;17.40;89.70;;;;;;5007794;28;20117;-77
2022/06/05 02:17:29;;;;;;;35.80;32.25;;;17.40;89.40;;;;;;5012880;28;20045;-77
2022/06/05 02:19:54;;;;;;;37.00;33.17;;;17.30;89.20;;;;;;5016196;28;20033;-78
2022/06/05 02:22:59;;;;;;;37.20;33.42;;;17.40;89.20;;;;;;5014470;28;20044;-78
2022/06/05 02:25:26;;;;;;;36.53;32.80;;;17.30;89.10;;;;;;4944363;28;20074;-78
2022/06/05 02:27:58;;;;;;;36.97;33.15;;;17.40;89.10;;;;;;4950496;28;20767;-78
2022/06/05 02:30:33;;;;;;;34.67;31.25;;;17.40;89.00;;;;;;4981539;28;20037;-77
2022/06/05 02:33:27;;;;;;;37.25;33.40;;;17.40;89.00;;;;;;5005220;28;20385;-77
2022/06/05 02:36:26;;;;;;;35.95;32.50;;;17.40;88.80;;;;;;5007638;28;20034;-77
2022/06/05 02:39:07;;;;;;;35.75;32.15;;;17.30;88.60;;;;;;5009604;28;20159;-77
2022/06/05 02:42:01;;;;;;;36.47;32.65;;;17.30;88.60;;;;;;5019700;28;20044;-77
2022/06/05 02:44:52;;;;;;;37.25;33.47;;;17.30;88.80;;;;;;5005492;28;20034;-77
2022/06/05 02:47:32;;;;;;;37.08;33.38;;;17.30;88.60;;;;;;5012356;28;20030;-77
2022/06/05 02:50:13;;;;;;;37.53;33.60;;;17.30;88.70;;;;;;5006381;28;20370;-77
2022/06/05 02:52:39;;;;;;;39.58;35.63;;;17.20;88.80;;;;;;5011818;28;20361;-77
2022/06/05 02:55:14;;;;;;;39.40;35.40;;;17.20;88.80;;;;;;5016927;28;20057;-77
2022/06/05 02:57:42;;;;;;;38.97;34.97;;;17.20;88.90;;;;;;5015682;28;20503;-77
2022/06/05 03:00:11;;;;;;;40.85;36.75;;;17.20;88.80;;;;;;5020781;28;20641;-78
2022/06/05 03:05:21;;;;;;;40.17;36.08;;;17.20;88.80;;;;;;5008154;28;20057;-77
2022/06/05 03:07:46;;;;;;;39.22;35.42;;;17.10;88.80;;;;;;5020272;28;20477;-78
2022/06/05 03:10:13;;;;;;;41.70;37.63;;;17.10;89.00;;;;;;5013508;28;20045;-78
2022/06/05 03:12:38;;;;;;;42.33;37.97;;;17.10;89.00;;;;;;5010047;28;20135;-77
2022/06/05 03:15:06;;;;;;;44.28;39.97;;;17.10;89.00;;;;;;5012676;28;20532;-78
2022/06/05 03:17:32;;;;;;;42.95;38.83;;;17.10;89.10;;;;;;5009778;28;20125;-78
2022/06/05 03:19:58;;;;;;;44.55;40.10;;;17.20;88.90;;;;;;5005189;28;20057;-78
2022/06/05 03:22:25;;;;;;;44.25;39.75;;;17.20;88.90;;;;;;4996645;28;20141;-78
2022/06/05 03:24:51;;;;;;;44.25;39.78;;;17.20;88.80;;;;;;5005151;28;20038;-78
2022/06/05 03:27:18;;;;;;;46.80;42.10;;;17.20;88.90;;;;;;5014168;28;20084;-77
2022/06/05 03:29:45;;;;;;;44.38;39.80;;;17.20;88.90;;;;;;5016591;28;20403;-79
2022/06/05 03:32:11;;;;;;;42.85;38.40;;;17.20;89.00;;;;;;5005228;28;20680;-77
2022/06/05 03:34:37;;;;;;;44.75;40.38;;;17.20;88.90;;;;;;5008535;28;20042;-78
2022/06/05 03:37:04;;;;;;;46.20;41.30;;;17.20;88.90;;;;;;5000105;28;20577;-78
2022/06/05 03:39:31;;;;;;;44.63;40.25;;;17.20;89.00;;;;;;4993548;28;20518;-78
2022/06/05 03:41:56;;;;;;;46.25;41.58;;;17.30;88.80;;;;;;5004173;28;20038;-78
2022/06/05 03:44:22;;;;;;;43.63;39.53;;;17.30;88.80;;;;;;4995533;28;20544;-78
2022/06/05 03:46:48;;;;;;;46.67;42.00;;;17.30;88.90;;;;;;4991880;28;20038;-78
2022/06/05 03:49:13;;;;;;;46.53;41.83;;;17.30;88.90;;;;;;4997041;28;20038;-78
2022/06/05 03:51:39;;;;;;;47.95;43.00;;;17.30;88.80;;;;;;4996655;28;20034;-78
2022/06/05 03:54:05;;;;;;;46.80;42.05;;;17.30;88.70;;;;;;5010650;28;20042;-78
2022/06/05 03:56:31;;;;;;;47.50;42.72;;;17.30;88.80;;;;;;5005729;28;20091;-78
2022/06/05 03:58:57;;;;;;;45.95;41.33;;;17.30;88.90;;;;;;4995892;28;20453;-78
2022/06/05 04:01:25;;;;;;;47.83;43.00;;;17.30;88.90;;;;;;4991628;28;20035;-78
2022/06/05 04:03:52;;;;;;;46.67;41.90;;;17.30;88.90;;;;;;4996584;28;20041;-78
2022/06/05 04:06:20;;;;;;;48.17;43.03;;;17.30;89.00;;;;;;5006485;28;20251;-78
2022/06/05 04:08:46;;;;;;;51.20;45.97;;;17.20;89.00;;;;;;5006671;28;20448;-78
2022/06/05 04:11:14;;;;;;;50.42;45.33;;;17.30;89.10;;;;;;5010655;28;20034;-79
2022/06/05 04:13:40;;;;;;;49.20;44.30;;;17.30;89.00;;;;;;5016450;28;20061;-79
2022/06/05 04:16:13;;;;;;;47.80;43.05;;;17.30;89.00;;;;;;5023870;28;20539;-79
2022/06/05 04:18:39;;;;;;;48.80;44.10;;;17.40;88.90;;;;;;5011648;28;20053;-78
2022/06/05 04:21:09;;;;;;;50.50;45.30;;;17.30;88.90;;;;;;5032501;28;20087;-79
2022/06/05 04:23:35;;;;;;;44.28;39.88;;;17.40;88.90;;;;;;5014447;28;20037;-78
2022/06/05 04:26:01;;;;;;;50.13;45.08;;;17.40;88.90;;;;;;5008112;28;20038;-78
2022/06/05 04:28:27;;;;;;;51.00;45.92;;;17.50;88.90;;;;;;4998311;28;20096;-78
2022/06/05 04:30:53;;;;;;;49.63;44.28;;;17.50;89.20;;;;;;5003483;28;20394;-77
2022/06/05 04:33:19;;;;;;;40.25;36.20;;;17.50;89.20;;;;;;5004865;28;20526;-78
2022/06/05 04:35:44;;;;;;;41.13;36.92;;;17.40;89.70;;;;;;5005013;28;20105;-78
2022/06/05 04:38:11;;;;;;;44.78;39.95;;;17.40;89.70;;;;;;5004371;28;20044;-78
2022/06/05 04:40:36;;;;;;;42.05;37.95;;;17.30;89.80;;;;;;5007857;28;20038;-78
2022/06/05 04:43:02;;;;;;;42.88;38.33;;;17.40;90.10;;;;;;5008694;28;20034;-79
2022/06/05 04:45:28;;;;;;;44.53;40.00;;;17.30;90.10;;;;;;5012240;28;20115;-78
2022/06/05 04:47:53;;;;;;;40.72;36.53;;;17.30;90.10;;;;;;5011356;28;20124;-78
2022/06/05 04:50:19;;;;;;;41.22;37.15;;;17.30;90.20;;;;;;5009709;28;20034;-79
2022/06/05 04:52:44;;;;;;;42.92;38.85;;;17.30;90.30;;;;;;5010307;28;20469;-79
2022/06/05 04:55:10;;;;;;;39.72;35.85;;;17.30;90.30;;;;;;5008498;28;20493;-78
2022/06/05 04:57:36;;;;;;;40.30;36.38;;;17.40;90.20;;;;;;5009025;28;20452;-78
2022/06/05 05:00:04;;;;;;;38.63;34.83;;;17.40;90.30;;;;;;5008967;28;20042;-79
2022/06/05 05:02:30;;;;;;;35.17;31.90;;;17.50;90.30;;;;;;5010013;28;20060;-79
2022/06/05 05:04:56;;;;;;;30.88;27.98;;;17.50;90.20;;;;;;5013461;28;20065;-79
2022/06/05 05:07:22;;;;;;;30.52;27.67;;;17.60;90.20;;;;;;5001198;28;20038;-79
2022/06/05 05:09:48;;;;;;;28.27;25.50;;;17.60;89.70;;;;;;4998226;28;20034;-78
2022/06/05 05:12:15;;;;;;;28.40;25.65;;;17.70;89.60;;;;;;4999360;28;20034;-78
2022/06/05 05:14:41;;;;;;;28.70;25.95;;;17.70;89.20;;;;;;4991703;28;20030;-79
2022/06/05 05:17:07;;;;;;;30.15;26.95;;;17.70;89.20;;;;;;5009919;28;20033;-78
2022/06/05 05:19:33;;;;;;;31.15;28.05;;;17.70;89.30;;;;;;5005926;28;20042;-78
2022/06/05 05:21:59;;;;;;;33.53;30.15;;;17.60;89.40;;;;;;5013658;28;20029;-77
2022/06/05 05:24:25;;;;;;;32.50;29.50;;;17.40;89.70;;;;;;5011694;28;20042;-78
2022/06/05 05:26:51;;;;;;;33.65;30.08;;;17.20;90.40;;;;;;5021243;28;20054;-78
2022/06/05 05:29:17;;;;;;;34.90;31.25;;;17.20;90.70;;;;;;5041264;28;20051;-78
2022/06/05 05:31:44;;;;;;;37.35;33.22;;;17.20;91.20;;;;;;5013969;28;20069;-78
2022/06/05 05:34:11;;;;;;;35.83;32.42;;;17.10;91.70;;;;;;5017188;28;20045;-77
2022/06/05 05:36:37;;;;;;;33.85;30.33;;;17.10;92.20;;;;;;5006808;28;20389;-77
2022/06/05 05:42:07;;;;;;;32.38;29.10;;;17.20;92.10;;;;;;5002317;28;20083;-77
2022/06/05 05:44:39;;;;;;;;;;;17.30;92.00;;;;;;4999605;28;20038;-78
2022/06/05 05:47:06;;;;;;;28.45;24.95;;;17.40;92.20;;;;;;4999344;28;20345;-78
2022/06/05 05:49:33;;;;;;;28.83;25.92;;;17.50;92.30;;;;;;5000691;28;20051;-78
2022/06/05 05:51:58;;;;;;;27.13;24.27;;;17.50;92.40;;;;;;4995902;28;20042;-78
2022/06/05 05:54:24;;;;;;;25.75;23.23;;;17.60;92.40;;;;;;4999892;28;20042;-78
2022/06/05 05:56:51;;;;;;;27.25;24.65;;;17.60;92.40;;;;;;5003548;28;21055;-78
2022/06/05 05:59:18;;;;;;;27.27;24.63;;;17.70;92.50;;;;;;4994773;28;20042;-78
2022/06/05 06:01:44;;;;;;;25.88;23.45;;;17.80;92.50;;;;;;5000512;28;20532;-78
2022/06/05 06:04:09;;;;;;;24.80;22.58;;;17.80;92.40;;;;;;4998331;28;20042;-78
2022/06/05 06:06:36;;;;;;;25.00;22.67;;;17.80;92.40;;;;;;5000826;28;20456;-77
2022/06/05 06:09:02;;;;;;;23.55;21.25;;;17.80;92.40;;;;;;5002189;28;20038;-78
2022/06/05 06:11:28;;;;;;;24.95;22.52;;;17.80;92.50;;;;;;4997391;28;20096;-77
2022/06/05 06:13:53;;;;;;;24.85;22.42;;;17.90;92.40;;;;;;4991026;28;20061;-77
2022/06/05 06:16:19;;;;;;;23.77;21.48;;;17.80;92.40;;;;;;5003771;28;20089;-77
2022/06/05 06:18:45;;;;;;;26.42;24.13;;;17.90;92.40;;;;;;5001112;28;20523;-80
2022/06/05 06:21:11;;;;;;;30.85;28.15;;;17.90;92.20;;;;;;4997557;28;20379;-78
2022/06/05 06:23:36;;;;;;;29.75;26.85;;;17.80;91.80;;;;;;4998678;28;20034;-79
2022/06/05 06:26:06;;;;;;;30.77;27.88;;;17.80;91.60;;;;;;4994630;28;20112;-78
2022/06/05 06:28:32;;;;;;;30.73;27.70;;;17.80;91.30;;;;;;5002425;28;20049;-79
2022/06/05 06:30:57;;;;;;;30.90;28.15;;;17.70;91.50;;;;;;4994540;28;20599;-79
2022/06/05 06:33:23;;;;;;;31.58;28.70;;;17.60;91.50;;;;;;5003751;28;20103;-80
2022/06/05 06:35:49;;;;;;;35.45;32.22;;;17.70;91.70;;;;;;4996775;28;20026;-79
2022/06/05 06:38:14;;;;;;;32.72;29.63;;;17.70;91.60;;;;;;4997289;28;20205;-78
2022/06/05 06:40:40;;;;;;;31.65;28.85;;;17.80;91.70;;;;;;4998403;28;20042;-78
2022/06/05 06:43:06;;;;;;;31.83;28.92;;;17.80;91.60;;;;;;5003764;28;20470;-78
2022/06/05 06:45:32;;;;;;;32.60;29.58;;;17.90;91.50;;;;;;5003954;28;20069;-78
2022/06/05 06:47:58;;;;;;;34.17;31.10;;;17.90;91.50;;;;;;5007842;28;20102;-78
2022/06/05 06:50:24;;;;;;;33.47;30.27;;;17.90;91.50;;;;;;4995403;28;20466;-78
2022/06/05 06:52:49;;;;;;;33.13;30.02;;;17.80;91.30;;;;;;4992991;28;20041;-78
2022/06/05 06:55:17;;;;;;;34.78;31.67;;;17.80;91.30;;;;;;4995351;28;20045;-78
2022/06/05 06:57:43;;;;;;;35.50;32.40;;;17.80;91.40;;;;;;4996036;28;20053;-78
2022/06/05 07:00:15;;;;;;;37.15;33.67;;;17.80;91.40;;;;;;4991293;28;20041;-78
2022/06/05 07:02:40;;;;;;;34.08;30.95;;;17.80;91.40;;;;;;4993421;28;20401;-78
2022/06/05 07:05:06;;;;;;;32.20;29.20;;;17.80;91.60;;;;;;4991229;28;20107;-78
2022/06/05 07:07:32;;;;;;;34.70;31.60;;;17.80;91.80;;;;;;5003329;28;20057;-79
2022/06/05 07:09:57;;;;;;;32.28;29.38;;;17.90;91.80;;;;;;5000594;28;20080;-78
2022/06/05 07:12:23;;;;;;;32.38;29.38;;;17.90;92.00;;;;;;4996155;28;20041;-78
2022/06/05 07:14:49;;;;;;;30.92;28.00;;;17.90;92.00;;;;;;5000436;28;20070;-78
2022/06/05 07:17:14;;;;;;;29.45;26.80;;;18.00;92.10;;;;;;4999982;28;20053;-78
2022/06/05 07:19:40;;;;;;;27.27;24.80;;;18.00;92.00;;;;;;5001203;28;20042;-78
2022/06/05 07:22:05;;;;;;;26.70;24.27;;;18.00;92.00;;;;;;4997751;28;20057;-78
2022/06/05 07:24:31;;;;;;;25.05;22.63;;;18.10;92.00;;;;;;4998629;28;20096;-78
2022/06/05 07:26:57;;;;;;;28.58;25.75;;;18.10;91.90;;;;;;4999231;28;20385;-78
2022/06/05 07:29:22;;;;;;;28.83;26.25;;;18.10;92.00;;;;;;5002921;28;20060;-78
2022/06/05 07:31:48;;;;;;;29.13;26.33;;;18.10;91.70;;;;;;4999619;28;20173;-78
2022/06/05 07:34:14;;;;;;;29.23;26.58;;;18.10;91.90;;;;;;5001261;28;20046;-78
2022/06/05 07:36:39;;;;;;;26.67;24.38;;;18.10;91.90;;;;;;4994735;28;20076;-78
2022/06/05 07:39:05;;;;;;;27.75;25.13;;;18.20;91.90;;;;;;4994706;28;20282;-78
2022/06/05 07:41:34;;;;;;;26.60;24.20;;;18.30;91.90;;;;;;4992918;28;20030;-78
2022/06/05 07:44:00;;;;;;;26.35;23.95;;;18.30;91.80;;;;;;4998046;28;20072;-78
2022/06/05 07:46:27;;;;;;;26.92;24.25;;;18.30;91.70;;;;;;4997899;28;20572;-78
2022/06/05 07:48:52;;;;;;;24.98;22.58;;;18.30;91.60;;;;;;4994912;28;20491;-78
2022/06/05 07:54:29;;;;;;;19.85;17.73;;;18.40;91.50;;;;;;4996626;28;20193;-79
2022/06/05 07:57:15;;;;;;;18.33;16.52;;;18.40;91.60;;;;;;5000913;28;20037;-77
2022/06/05 07:59:43;;;;;;;18.27;16.58;;;18.40;91.20;;;;;;4992711;28;20351;-78
2022/06/05 08:02:18;;;;;;;18.05;16.15;;;18.60;91.40;;;;;;4994876;28;20486;-77
2022/06/05 08:04:45;;;;;;;19.65;17.85;;;18.60;91.40;;;;;;4994169;28;20490;-78
2022/06/05 08:07:13;;;;;;;18.23;16.42;;;18.70;91.30;;;;;;4997532;28;20136;-78
2022/06/05 08:09:41;;;;;;;17.80;16.10;;;18.80;91.30;;;;;;4991198;28;20051;-77
2022/06/05 08:12:08;;;;;;;18.75;16.88;;;19.00;91.10;;;;;;5000278;28;20449;-78
2022/06/05 08:14:35;;;;;;;18.30;16.58;;;19.00;90.80;;;;;;4992836;28;20034;-78
2022/06/05 08:17:04;;;;;;;17.48;15.80;;;19.10;90.60;;;;;;4994663;28;20628;-78
2022/06/05 08:19:30;;;;;;;15.40;13.95;;;19.20;90.00;;;;;;5004365;28;20430;-77
2022/06/05 08:21:56;;;;;;;15.80;14.23;;;19.20;89.70;;;;;;5003448;28;20042;-79
2022/06/05 08:24:22;;;;;;;16.70;15.10;;;19.30;89.70;;;;;;5001014;28;20038;-78
2022/06/05 08:26:48;;;;;;;15.90;14.30;;;19.40;89.60;;;;;;4999884;28;20042;-77
2022/06/05 08:29:14;;;;;;;17.48;15.70;;;19.40;89.40;;;;;;4999892;28;20046;-73
2022/06/05 08:31:40;;;;;;;14.18;12.80;;;19.40;89.40;;;;;;4999761;28;20041;-75
2022/06/05 08:34:06;;;;;;;15.60;13.32;;;19.40;89.40;;;;;;4994567;28;20048;-75
2022/06/05 08:36:32;;;;;;;14.02;12.73;;;19.40;89.00;;;;;;4999776;28;20037;-74
2022/06/05 08:42:01;;;;;;;14.32;12.82;;;19.40;89.40;;;;;;5003453;28;20044;-72
2022/06/05 08:44:40;;;;;;;13.32;11.93;;;19.30;89.70;;;;;;4996466;28;20509;-74
2022/06/05 08:47:20;;;;;;;16.42;11.60;;;19.30;89.70;;;;;;5000734;28;20041;-75
2022/06/05 08:50:23;;;;;;;12.43;11.13;;;19.20;89.80;;;;;;4998449;28;20037;-73
2022/06/05 08:52:58;;;;;;;9.57;7.90;;;19.20;89.90;;;;;;4993563;28;20046;-73
2022/06/05 08:55:33;;;;;;;8.60;7.30;;;19.10;89.10;;;;;;4996579;28;20084;-72
2022/06/05 08:58:24;;;;;;;9.98;7.80;;;19.20;89.10;;;;;;4999463;28;20035;-74
2022/06/05 09:01:21;;;;;;;11.80;9.18;;;19.20;89.20;;;;;;5005223;28;20477;-73
2022/06/05 09:03:51;;;;;;;10.02;9.02;;;19.30;89.60;;;;;;4997860;28;20037;-74
2022/06/05 09:06:34;;;;;;;12.63;10.25;;;19.40;89.30;;;;;;4996411;28;20304;-74
2022/06/05 09:09:05;;;;;;;13.27;11.98;;;19.40;88.90;;;;;;4990926;28;20113;-73
2022/06/05 09:11:41;;;;;;;14.07;12.77;;;19.40;88.90;;;;;;5001605;28;20050;-79
2022/06/05 09:14:37;;;;;;;13.70;12.43;;;19.40;88.70;;;;;;4985793;28;20045;-73
2022/06/05 09:17:09;;;;;;;13.90;12.60;;;19.60;88.90;;;;;;4997001;28;20026;-73
2022/06/05 09:19:35;;;;;;;12.85;11.50;;;19.60;88.60;;;;;;5010085;28;20427;-72
2022/06/05 09:22:24;;;;;;;11.32;10.00;;;19.60;88.20;;;;;;5000738;28;20497;-74
2022/06/05 09:25:25;;;;;;;10.00;9.00;;;19.70;88.00;;;;;;5000174;28;20059;-72
2022/06/05 09:27:57;;;;;;;9.68;7.25;;;19.70;87.40;;;;;;4990637;28;20037;-72
2022/06/05 09:30:35;;;;;;;9.68;8.68;;;19.60;87.00;;;;;;4995710;28;20045;-74
2022/06/05 09:33:05;;;;;;;9.95;8.95;;;19.70;86.90;;;;;;5002199;28;20441;-74
2022/06/05 09:35:36;;;;;;;9.70;8.70;;;19.70;87.60;;;;;;4996662;28;20034;-75
2022/06/05 09:38:37;;;;;;;9.77;8.68;;;19.80;87.80;;;;;;4994632;28;20050;-76
2022/06/05 09:41:11;;;;;;;8.75;7.28;;;19.90;87.80;;;;;;4965507;28;20042;-76
2022/06/05 09:44:16;;;;;;;10.80;9.15;;;19.90;87.70;;;;;;5000634;28;20509;-73
2022/06/05 09:46:58;;;;;;;10.75;9.23;;;19.90;87.70;;;;;;4996251;28;20458;-74
2022/06/05 09:49:31;;;;;;;9.00;8.10;;;19.90;87.50;;;;;;5001433;28;20422;-75
2022/06/05 09:52:19;;;;;;;10.25;9.25;;;19.90;88.00;;;;;;5005637;28;20118;-77
2022/06/05 09:55:09;;;;;;;11.13;10.02;;;19.90;87.80;;;;;;5003444;28;20160;-74
2022/06/05 10:00:37;;;;;;;12.02;9.73;;;20.10;88.30;;;;;;5002030;28;20089;-78
2022/06/05 10:03:11;;;;;;;10.60;9.50;;;20.10;87.90;;;;;;4998574;28;20046;-73
2022/06/05 10:05:40;;;;;;;;;;;20.10;88.10;;;;;;4997800;28;20041;-74
2022/06/05 10:08:24;;;;;;;10.38;8.95;;;20.10;87.80;;;;;;4998311;28;19921;-75
2022/06/05 10:10:56;;;;;;;12.30;10.43;;;20.10;88.10;;;;;;4996908;28;20140;-74
2022/06/05 10:13:46;;;;;;;13.05;11.77;;;20.10;87.90;;;;;;4996877;28;20121;-76
2022/06/05 10:16:31;;;;;;;12.23;11.02;;;20.10;87.70;;;;;;5002054;28;20029;-73
2022/06/05 10:19:15;;;;;;;12.27;11.07;;;20.10;88.50;;;;;;5004407;28;20077;-75
2022/06/05 10:21:50;;;;;;;;;;;20.10;88.30;;;;;;4997959;28;20037;-74
2022/06/05 10:24:24;;;;;;;13.30;11.80;;;20.10;88.00;;;;;;5001401;28;20281;-74
2022/06/05 10:26:58;;;;;;;12.13;10.30;;;20.10;87.90;;;;;;5003711;28;20111;-74
2022/06/05 10:29:39;;;;;;;10.65;9.55;;;20.10;88.00;;;;;;5003760;28;20045;-74
2022/06/05 10:32:34;;;;;;;11.80;10.07;;;20.00;87.40;;;;;;5011113;28;20121;-74
2022/06/05 10:35:46;;;;;;;13.43;12.13;;;20.00;87.40;;;;;;5007447;28;20034;-74
2022/06/05 10:38:39;;;;;;;15.20;13.70;;;20.00;87.20;;;;;;5012471;28;20038;-75
2022/06/05 10:41:29;;;;;;;13.77;12.38;;;20.10;87.70;;;;;;5018751;28;20510;-78
2022/06/05 10:44:28;;;;;;;13.93;12.52;;;20.10;88.10;;;;;;5008829;28;20311;-74
2022/06/05 10:47:02;;;;;;;12.90;11.55;;;20.10;87.60;;;;;;5012318;28;20030;-77
2022/06/05 10:50:16;;;;;;;14.13;12.82;;;20.20;87.80;;;;;;5008293;28;20064;-74
2022/06/05 10:52:52;;;;;;;12.63;11.43;;;20.30;87.60;;;;;;4989292;28;20119;-73
2022/06/05 10:55:18;;;;;;;11.98;10.82;;;20.30;87.50;;;;;;4989474;28;20096;-73
2022/06/05 10:58:15;;;;;;;12.02;10.73;;;20.40;87.40;;;;;;4992395;28;20042;-74
2022/06/05 11:01:05;;;;;;;12.85;11.43;;;20.40;86.60;;;;;;4986202;28;20038;-75
2022/06/05 11:03:51;;;;;;;12.20;10.85;;;20.30;86.40;;;;;;4983948;28;20630;-77
2022/06/05 11:06:36;;;;;;;12.45;11.25;;;20.20;86.40;;;;;;4982664;28;20105;-78
2022/06/05 11:09:25;;;;;;;12.18;10.98;;;20.10;86.70;;;;;;4988462;28;20049;-78
2022/06/05 11:14:58;;;;;;;10.48;9.43;;;20.10;86.30;;;;;;4976022;28;20500;-75
2022/06/05 11:18:10;;;;;;;10.23;9.18;;;20.10;86.00;;;;;;4990517;28;20042;-74
2022/06/05 11:20:39;;;;;;;10.85;9.05;;;20.10;86.40;;;;;;4971989;28;20050;-73
2022/06/05 11:23:17;;;;;;;10.90;9.73;;;20.10;86.50;;;;;;4985797;28;20046;-75
2022/06/05 11:25:59;;;;;;;11.15;9.63;;;20.00;87.00;;;;;;4978214;28;20371;-76
2022/06/05 11:28:46;;;;;;;11.98;10.77;;;20.10;87.30;;;;;;4985939;28;20146;-76
2022/06/05 11:31:22;;;;;;;11.27;10.18;;;20.10;87.00;;;;;;4980253;28;20066;-75
2022/06/05 11:34:09;;;;;;;12.68;11.48;;;20.10;86.80;;;;;;4989591;28;20038;-74
2022/06/05 11:36:49;;;;;;;13.38;11.98;;;20.10;86.60;;;;;;4993876;28;20394;-75
2022/06/05 11:39:33;;;;;;;13.57;12.23;;;20.10;86.70;;;;;;4985150;28;20462;-75
2022/06/05 11:42:28;;;;;;;13.50;12.20;;;20.20;86.20;;;;;;4994420;28;20030;-76
2022/06/05 11:45:14;;;;;;;;;;;20.10;85.40;;;;;;4993232;28;20092;-76
2022/06/05 11:47:51;;;;;;;12.70;11.27;;;20.10;85.30;;;;;;4987298;28;19949;-74
2022/06/05 11:50:34;;;;;;;13.00;11.70;;;19.90;85.50;;;;;;4987077;28;20506;-75
2022/06/05 11:53:51;;;;;;;14.32;12.93;;;20.00;86.20;;;;;;4998168;28;20096;-74
2022/06/05 11:56:26;;;;;;;14.32;12.82;;;20.10;85.90;;;;;;4966035;28;20093;-75
2022/06/05 11:59:12;;;;;;;13.00;11.65;;;20.00;85.80;;;;;;5004658;28;20050;-74
2022/06/05 12:01:43;;;;;;;12.13;10.85;;;19.60;85.90;;;;;;4990168;28;20038;-76
2022/06/05 12:04:28;;;;;;;13.40;11.73;;;19.60;86.80;;;;;;4984561;28;20482;-77
2022/06/05 12:06:59;;;;;;;14.13;12.43;;;19.40;86.70;;;;;;4991627;28;20061;-71
2022/06/05 12:09:31;;;;;;;14.77;13.27;;;19.30;87.60;;;;;;4985104;28;20030;-76
2022/06/05 12:12:13;;;;;;;16.30;14.70;;;19.50;88.30;;;;;;4983190;28;20450;-75
2022/06/05 12:14:42;;;;;;;17.73;15.93;;;19.50;88.40;;;;;;4984600;28;20042;-74
2022/06/05 12:17:32;;;;;;;16.15;14.55;;;19.60;88.40;;;;;;4985851;28;20429;-79
2022/06/05 12:20:29;;;;;;;16.05;14.38;;;19.50;87.90;;;;;;4984204;28;20038;-76
2022/06/05 12:23:08;;;;;;;12.57;11.23;;;19.40;87.90;;;;;;4983398;28;20113;-76
2022/06/05 12:25:56;;;;;;;12.50;11.15;;;19.50;88.00;;;;;;4986262;28;20074;-75
2022/06/05 12:28:35;;;;;;;11.50;10.30;;;19.60;88.10;;;;;;4989649;28;20034;-79
2022/06/05 12:31:14;;;;;;;11.70;10.50;;;19.70;87.90;;;;;;4978016;28;20443;-79
2022/06/05 12:34:10;;;;;;;12.73;11.38;;;19.90;88.10;;;;;;4982935;28;20044;-76
2022/06/05 12:36:44;;;;;;;11.73;10.52;;;19.90;87.50;;;;;;4983788;28;20505;-75
2022/06/05 12:39:25;;;;;;;14.82;13.38;;;20.00;87.40;;;;;;4988539;28;20157;-76
2022/06/05 12:42:32;;;;;;;17.33;15.50;;;20.10;87.00;;;;;;5007258;28;20030;-76
2022/06/05 12:45:22;;;;;;;17.02;15.38;;;20.10;86.60;;;;;;4991654;28;20390;-75
2022/06/05 12:47:53;;;;;;;16.58;14.88;;;20.20;86.50;;;;;;4993275;28;20068;-75
2022/06/05 12:50:36;;;;;;;18.33;16.42;;;20.30;86.40;;;;;;4984625;28;20041;-78
2022/06/05 12:53:13;;;;;;;20.38;18.38;;;20.20;85.10;;;;;;4972440;28;20479;-76
2022/06/05 12:56:25;;;;;;;21.48;19.25;;;20.10;85.60;;;;;;4977780;28;20108;-76
2022/06/05 12:59:03;;;;;;;20.30;18.30;;;20.10;85.30;;;;;;4969460;28;20509;-75
2022/06/05 13:01:45;;;;;;;20.63;18.63;;;20.10;86.00;;;;;;4982752;28;20053;-75
2022/06/05 13:04:16;;;;;;;20.60;18.25;;;20.00;85.10;;;;;;5009264;28;20121;-75
2022/06/05 13:06:47;;;;;;;19.33;17.33;;;19.90;86.10;;;;;;4987371;28;20177;-78
2022/06/05 13:09:34;;;;;;;20.30;18.20;;;19.70;85.20;;;;;;4980609;28;20106;-76
2022/06/05 13:12:07;;;;;;;17.85;16.05;;;19.60;86.10;;;;;;4978613;28;20038;-74
2022/06/05 13:15:05;;;;;;;18.58;16.67;;;19.80;86.30;;;;;;4979336;28;20552;-75
2022/06/05 13:17:52;;;;;;;12.02;10.77;;;19.90;85.70;;;;;;4976296;28;20195;-75
2022/06/05 13:20:40;;;;;;;11.30;9.55;;;20.10;85.50;;;;;;4972766;28;20050;-75
2022/06/05 13:23:17;;;;;;;11.43;10.07;;;20.10;83.10;;;;;;4980218;28;20053;-75